Time;durP1;ratioP1;P1;durP2;ratioP2;P2;SDS_P1;SDS_P2;PMS_P1;PMS_P2;Temp;Humidity;BMP_temperature;BMP_pressure;BME280_temperature;BME280_humidity;BME280_pressure;Samples;Min_cycle;Max_cycle;Signal;HPM_P1;HPM_P2
2023/11/30 00:01:01;;;;;;;14.70;8.10;;;;;;;-2.78;66.55;99772.64;108082;1256;60402;-67
2023/11/30 00:03:29;;;;;;;16.40;7.50;;;;;;;-2.80;66.53;99780.73;108088;1256;60420;-69
2023/11/30 00:05:57;;;;;;;12.60;6.70;;;;;;;-2.85;66.55;99798.52;107987;1255;72843;-69
2023/11/30 00:08:25;;;;;;;14.90;7.30;;;;;;;-2.87;66.43;99802.05;108127;1256;71440;-67
2023/11/30 00:10:52;;;;;;;14.80;8.30;;;;;;;-2.87;66.47;99803.64;108099;1256;72681;-69
2023/11/30 00:13:20;;;;;;;15.70;7.80;;;;;;;-2.89;66.30;99806.48;107895;1256;60731;-67
2023/11/30 00:15:48;;;;;;;13.00;7.20;;;;;;;-2.86;66.20;99811.06;107959;1256;60261;-67
2023/11/30 00:18:15;;;;;;;15.20;8.00;;;;;;;-2.87;66.10;99820.38;107830;1256;72969;-68
2023/11/30 00:20:43;;;;;;;16.60;7.60;;;;;;;-2.89;66.22;99825.02;107904;1256;70258;-68
2023/11/30 00:23:11;;;;;;;14.20;6.70;;;;;;;-2.90;66.10;99824.40;107947;1256;74670;-67
2023/11/30 00:25:39;;;;;;;15.00;7.60;;;;;;;-2.92;66.07;99828.55;107877;1257;60493;-67
2023/11/30 00:28:07;;;;;;;15.60;8.40;;;;;;;-2.93;66.05;99830.49;108056;1260;60308;-68
2023/11/30 00:30:34;;;;;;;14.20;8.10;;;;;;;-2.95;65.93;99830.30;107947;1255;73882;-69
2023/11/30 00:33:02;;;;;;;14.70;7.90;;;;;;;-2.96;65.84;99835.15;108074;1256;72696;-68
2023/11/30 00:35:30;;;;;;;14.90;8.10;;;;;;;-2.97;65.84;99836.27;108039;1256;72515;-67
2023/11/30 00:37:57;;;;;;;16.30;8.50;;;;;;;-2.99;65.89;99841.69;107964;1255;60401;-68
2023/11/30 00:40:25;;;;;;;17.90;8.20;;;;;;;-3.00;65.76;99838.05;108075;1256;60413;-68
2023/11/30 00:42:53;;;;;;;15.70;8.10;;;;;;;-3.03;65.67;99842.52;108039;1255;73925;-66
2023/11/30 00:45:22;;;;;;;16.50;7.90;;;;;;;-3.02;65.77;99840.05;107921;1256;72776;-69
2023/11/30 00:47:49;;;;;;;16.70;8.70;;;;;;;-3.03;65.69;99853.15;107845;1256;71350;-67
2023/11/30 00:50:17;;;;;;;13.90;7.90;;;;;;;-3.06;65.73;99853.83;107870;1255;60371;-68
2023/11/30 00:52:45;;;;;;;14.90;7.50;;;;;;;-3.06;65.89;99851.77;107998;1256;60438;-67
2023/11/30 00:55:13;;;;;;;13.80;6.60;;;;;;;-3.09;65.92;99855.90;107857;1255;73980;-67
2023/11/30 00:57:40;;;;;;;17.40;8.60;;;;;;;-3.11;65.73;99852.13;107972;1255;71580;-68
2023/11/30 01:00:09;;;;;;;17.30;8.40;;;;;;;-3.12;65.74;99858.95;107904;1256;71490;-67
2023/11/30 01:02:38;;;;;;;18.30;8.50;;;;;;;-3.14;65.92;99867.20;107959;1256;60341;-66
2023/11/30 01:05:06;;;;;;;16.80;9.50;;;;;;;-3.15;65.79;99866.84;107884;1254;61175;-66
2023/11/30 01:07:35;;;;;;;16.00;8.80;;;;;;;-3.17;65.87;99863.84;108031;1254;72869;-67
2023/11/30 01:10:04;;;;;;;17.90;8.70;;;;;;;-3.18;65.86;99867.41;108012;1254;72958;-67
2023/11/30 01:12:33;;;;;;;12.50;7.00;;;;;;;-3.21;65.85;99868.74;107799;1256;71708;-68
2023/11/30 01:15:01;;;;;;;17.60;8.90;;;;;;;-3.22;65.91;99869.33;107785;1256;61679;-68
2023/11/30 01:17:29;;;;;;;16.80;8.90;;;;;;;-3.23;66.07;99873.14;107810;1256;60306;-68
2023/11/30 01:19:57;;;;;;;16.30;9.60;;;;;;;-3.25;66.17;99873.72;107858;1256;72573;-68
2023/11/30 01:22:25;;;;;;;15.00;9.00;;;;;;;-3.25;66.18;99874.29;107827;1257;70503;-67
2023/11/30 01:24:53;;;;;;;17.10;9.20;;;;;;;-3.25;66.14;99884.17;107745;1259;71366;-69
2023/11/30 01:27:20;;;;;;;19.90;9.60;;;;;;;-3.27;66.11;99886.13;107714;1256;61751;-68
2023/11/30 01:29:49;;;;;;;20.40;10.20;;;;;;;-3.30;66.29;99897.45;107821;1256;60397;-68
2023/11/30 01:32:17;;;;;;;17.20;9.10;;;;;;;-3.30;66.46;99895.59;107821;1256;73900;-68
2023/11/30 01:34:46;;;;;;;16.70;9.30;;;;;;;-3.32;66.43;99897.55;107674;1257;72269;-68
2023/11/30 01:37:26;;;;;;;18.90;9.70;;;;;;;-3.35;66.54;99901.23;107777;1257;71396;-68
2023/11/30 01:40:02;;;;;;;16.60;8.40;;;;;;;-3.39;66.74;99908.02;107652;1256;60392;-68
2023/11/30 01:42:33;;;;;;;18.10;9.20;;;;;;;-3.42;66.75;99906.93;107827;1256;60486;-67
2023/11/30 01:45:16;;;;;;;17.80;8.80;;;;;;;-3.41;66.83;99913.66;107827;1256;72662;-68
2023/11/30 01:48:00;;;;;;;18.20;9.20;;;;;;;-3.42;66.80;99920.80;107892;1256;71694;-68
2023/11/30 01:50:39;;;;;;;19.60;10.70;;;;;;;-3.42;66.91;99922.60;107795;1256;72686;-68
2023/11/30 01:53:20;;;;;;;18.80;10.00;;;;;;;-3.43;66.95;99923.19;107888;1256;61697;-67
2023/11/30 01:56:02;;;;;;;15.40;8.80;;;;;;;-3.45;67.02;99929.31;107787;1256;60430;-69
2023/11/30 01:58:44;;;;;;;16.90;9.80;;;;;;;-3.46;67.04;99933.20;107932;1256;73074;-67
2023/11/30 02:01:46;;;;;;;20.80;11.40;;;;;;;-3.46;67.17;99931.98;107750;1256;72760;-69
2023/11/30 02:10:36;;;;;;;16.10;8.50;;;;;;;-3.48;67.40;99937.91;107635;1255;60440;-69
2023/11/30 02:13:04;;;;;;;17.10;8.60;;;;;;;-3.47;67.43;99942.90;107907;1256;71489;-68
2023/11/30 02:15:32;;;;;;;14.90;8.30;;;;;;;-3.46;67.40;99941.84;107855;1257;72789;-68
2023/11/30 02:17:59;;;;;;;19.60;10.80;;;;;;;-3.46;67.34;99944.68;107885;1257;71083;-67
2023/11/30 02:20:28;;;;;;;16.90;9.60;;;;;;;-3.48;67.34;99949.95;107769;1258;60752;-68
2023/11/30 02:22:55;;;;;;;17.10;10.20;;;;;;;-3.50;67.31;99944.75;107749;1257;59642;-68
2023/11/30 02:25:23;;;;;;;17.90;9.40;;;;;;;-3.48;67.53;99952.41;107886;1257;73879;-68
2023/11/30 02:27:51;;;;;;;21.00;9.80;;;;;;;-3.50;67.44;99957.85;107865;1257;72935;-67
2023/11/30 02:30:19;;;;;;;16.30;9.50;;;;;;;-3.53;67.56;99958.52;107768;1257;71078;-67
2023/11/30 02:32:46;;;;;;;18.40;9.10;;;;;;;-3.53;67.67;99963.23;107858;1258;62506;-68
2023/11/30 02:35:15;;;;;;;19.10;9.80;;;;;;;-3.54;67.69;99965.58;107925;1257;60361;-68
2023/11/30 02:37:42;;;;;;;18.20;9.60;;;;;;;-3.56;67.81;99965.51;107873;1257;73870;-68
2023/11/30 02:40:11;;;;;;;19.20;9.70;;;;;;;-3.58;67.94;99967.65;107822;1257;71427;-69
2023/11/30 02:42:39;;;;;;;20.80;11.50;;;;;;;-3.61;67.95;99964.44;107838;1257;71095;-68
2023/11/30 02:45:07;;;;;;;21.40;11.40;;;;;;;-3.61;67.95;99965.34;107800;1257;60483;-68
2023/11/30 02:47:35;;;;;;;20.50;11.20;;;;;;;-3.60;68.10;99968.59;107830;1257;60295;-67
2023/11/30 02:50:04;;;;;;;22.80;12.50;;;;;;;-3.61;68.12;99966.02;107816;1262;72589;-67
2023/11/30 02:52:31;;;;;;;21.00;11.40;;;;;;;-3.60;68.27;99963.56;107839;1257;72674;-68
2023/11/30 02:54:59;;;;;;;20.80;10.50;;;;;;;-3.62;68.28;99968.24;107776;1257;72809;-67
2023/11/30 02:57:28;;;;;;;21.50;11.40;;;;;;;-3.61;68.37;99968.89;107792;1257;60752;-70
2023/11/30 02:59:55;;;;;;;20.20;10.30;;;;;;;-3.62;68.47;99973.98;107847;1257;60444;-70
2023/11/30 03:02:23;;;;;;;21.50;10.90;;;;;;;-3.63;68.46;99976.41;107803;1257;74367;-69
2023/11/30 03:04:54;;;;;;;21.00;11.50;;;;;;;-3.64;68.41;99979.13;107728;1256;71945;-69
2023/11/30 03:07:22;;;;;;;18.30;10.20;;;;;;;-3.66;68.53;99980.20;107818;1260;70409;-68
2023/11/30 03:09:49;;;;;;;22.40;11.20;;;;;;;-3.68;68.54;99985.98;107690;1257;60391;-69
2023/11/30 03:12:17;;;;;;;23.60;12.10;;;;;;;-3.70;68.77;99993.13;107837;1257;60254;-68
2023/11/30 03:14:46;;;;;;;19.40;10.60;;;;;;;-3.73;68.73;99992.00;107803;1257;72580;-69
2023/11/30 03:17:13;;;;;;;19.60;10.40;;;;;;;-3.76;68.92;99992.88;107794;1257;72618;-67
2023/11/30 03:19:41;;;;;;;21.20;10.40;;;;;;;-3.79;69.04;99994.59;107800;1257;72725;-67
2023/11/30 03:22:09;;;;;;;17.60;10.10;;;;;;;-3.81;69.17;99997.73;107689;1259;60476;-68
2023/11/30 03:24:37;;;;;;;18.40;10.60;;;;;;;-3.83;69.33;99996.44;107744;1257;60524;-69
2023/11/30 03:27:05;;;;;;;20.00;10.70;;;;;;;-3.85;69.50;100002.13;107755;1257;74026;-67
2023/11/30 03:29:33;;;;;;;19.70;9.90;;;;;;;-3.86;69.82;100005.73;107838;1256;72732;-68
2023/11/30 03:32:00;;;;;;;19.50;10.70;;;;;;;-3.87;70.22;100008.92;107776;1256;70979;-67
2023/11/30 03:34:28;;;;;;;17.80;9.40;;;;;;;-3.86;70.51;100014.77;107868;1257;60339;-67
2023/11/30 03:36:56;;;;;;;17.40;9.60;;;;;;;-3.84;70.58;100015.59;108028;1257;59974;-68
2023/11/30 03:39:24;;;;;;;17.40;9.40;;;;;;;-3.85;70.65;100017.52;107832;1257;73923;-68
2023/11/30 03:41:52;;;;;;;19.70;10.40;;;;;;;-3.85;70.87;100021.77;107838;1256;72956;-67
2023/11/30 03:44:20;;;;;;;20.30;10.90;;;;;;;-3.86;71.02;100023.23;107789;1257;72518;-68
2023/11/30 03:46:47;;;;;;;19.20;10.00;;;;;;;-3.86;71.36;100026.23;107815;1259;60492;-68
2023/11/30 03:49:15;;;;;;;18.30;10.20;;;;;;;-3.87;71.60;100021.13;107745;1257;60290;-68
2023/11/30 03:51:43;;;;;;;18.30;10.10;;;;;;;-3.85;71.74;100024.23;107751;1257;73888;-67
2023/11/30 03:54:11;;;;;;;20.50;9.80;;;;;;;-3.84;71.86;100021.98;107760;1257;72547;-68
2023/11/30 03:56:39;;;;;;;18.10;9.40;;;;;;;-3.82;71.99;100031.16;107739;1257;72737;-67
2023/11/30 03:59:07;;;;;;;18.20;9.30;;;;;;;-3.81;72.13;100028.45;107674;1259;60570;-67
2023/11/30 04:01:34;;;;;;;17.70;9.20;;;;;;;-3.81;72.10;100027.02;107574;1257;60188;-68
2023/11/30 04:04:02;;;;;;;19.10;10.20;;;;;;;-3.81;72.06;100034.09;107839;1257;73959;-67
2023/11/30 04:06:31;;;;;;;18.40;10.00;;;;;;;-3.80;72.21;100026.42;107690;1257;71461;-69
2023/11/30 04:09:01;;;;;;;17.10;8.90;;;;;;;-3.81;72.21;100024.41;107737;1258;74059;-68
2023/11/30 04:11:29;;;;;;;17.40;9.20;;;;;;;-3.82;72.18;100032.89;107644;1257;60212;-68
2023/11/30 04:14:04;;;;;;;17.20;10.20;;;;;;;-3.83;72.22;100036.69;107753;1257;59294;-68
2023/11/30 04:16:37;;;;;;;17.10;9.70;;;;;;;-3.85;72.10;100035.79;107794;1256;75913;-69
2023/11/30 04:19:06;;;;;;;20.80;10.00;;;;;;;-3.88;72.23;100038.58;107641;1257;71437;-69
2023/11/30 04:21:34;;;;;;;17.40;9.30;;;;;;;-3.90;72.37;100037.66;107779;1259;73770;-70
2023/11/30 04:24:14;;;;;;;17.60;8.20;;;;;;;-3.89;72.58;100040.67;107733;1257;63732;-68
2023/11/30 04:27:05;;;;;;;14.20;8.20;;;;;;;-3.88;72.70;100047.45;107673;1257;60412;-67
2023/11/30 04:29:51;;;;;;;16.40;9.70;;;;;;;-3.88;72.62;100047.16;107828;1257;73838;-67
2023/11/30 04:32:29;;;;;;;17.00;9.10;;;;;;;-3.88;72.69;100054.79;107703;1257;72428;-66
2023/11/30 04:34:57;;;;;;;17.40;9.60;;;;;;;-3.88;72.78;100053.25;107742;1257;71396;-69
2023/11/30 04:37:25;;;;;;;15.00;8.20;;;;;;;-3.89;72.70;100051.11;107771;1260;60451;-69
2023/11/30 04:39:53;;;;;;;18.50;9.20;;;;;;;-3.91;72.75;100048.40;107823;1259;60286;-69
2023/11/30 04:42:21;;;;;;;20.40;9.90;;;;;;;-3.92;72.78;100046.97;107631;1257;73860;-68
2023/11/30 04:44:48;;;;;;;17.10;9.50;;;;;;;-3.93;72.81;100044.95;107851;1256;71426;-69
2023/11/30 04:47:16;;;;;;;19.30;10.60;;;;;;;-3.94;72.81;100052.13;107753;1257;71466;-69
2023/11/30 04:49:45;;;;;;;17.70;9.20;;;;;;;-3.93;72.84;100053.30;107731;1257;61954;-69
2023/11/30 04:52:13;;;;;;;18.00;9.60;;;;;;;-3.93;72.92;100048.45;107717;1257;60274;-69
2023/11/30 04:54:42;;;;;;;15.60;9.10;;;;;;;-3.93;72.90;100048.11;107767;1257;71888;-70
2023/11/30 04:57:10;;;;;;;19.10;10.50;;;;;;;-3.96;72.90;100055.39;107853;1257;71161;-69
2023/11/30 04:59:38;;;;;;;17.20;9.70;;;;;;;-3.98;72.90;100059.63;107697;1257;70408;-67
2023/11/30 05:02:07;;;;;;;18.80;9.10;;;;;;;-4.02;72.86;100059.82;107795;1260;60558;-68
2023/11/30 05:04:37;;;;;;;18.80;10.20;;;;;;;-4.05;72.90;100061.91;107784;1256;60424;-69
2023/11/30 05:07:05;;;;;;;20.30;9.60;;;;;;;-4.07;73.16;100066.59;107809;1256;72888;-68
2023/11/30 05:09:32;;;;;;;17.50;9.40;;;;;;;-4.08;73.21;100066.73;107745;1257;72814;-68
2023/11/30 05:12:00;;;;;;;18.30;9.40;;;;;;;-4.09;73.26;100070.89;107853;1256;72680;-68
2023/11/30 05:14:28;;;;;;;15.60;8.80;;;;;;;-4.11;73.39;100067.29;107901;1257;60311;-68
2023/11/30 05:16:56;;;;;;;17.90;9.40;;;;;;;-4.12;73.54;100066.41;107880;1257;59899;-68
2023/11/30 05:19:24;;;;;;;16.00;9.00;;;;;;;-4.13;73.62;100072.41;107760;1257;72638;-68
2023/11/30 05:21:52;;;;;;;18.60;10.20;;;;;;;-4.16;73.62;100078.42;107720;1257;71578;-67
2023/11/30 05:24:20;;;;;;;16.50;7.90;;;;;;;-4.17;73.69;100084.02;107746;1258;72959;-68
2023/11/30 05:26:47;;;;;;;17.20;9.30;;;;;;;-4.19;73.95;100085.42;107668;1259;60486;-66
2023/11/30 05:29:15;;;;;;;16.20;9.20;;;;;;;-4.20;73.95;100094.52;107781;1262;60256;-67
2023/11/30 05:31:43;;;;;;;17.60;9.50;;;;;;;-4.20;74.15;100093.72;107774;1260;73030;-68
2023/11/30 05:34:11;;;;;;;19.30;10.00;;;;;;;-4.21;74.34;100095.19;107785;1258;72149;-68
2023/11/30 05:36:38;;;;;;;19.10;10.10;;;;;;;-4.22;74.40;100096.23;107686;1259;72719;-69
2023/11/30 05:39:06;;;;;;;19.40;9.20;;;;;;;-4.23;74.59;100095.45;107751;1258;61754;-67
2023/11/30 05:41:34;;;;;;;21.00;10.00;;;;;;;-4.25;74.62;100090.05;107749;1257;60453;-67
2023/11/30 05:44:03;;;;;;;18.60;9.10;;;;;;;-4.26;74.72;100095.05;107787;1257;73037;-67
2023/11/30 05:46:31;;;;;;;19.00;9.90;;;;;;;-4.26;74.84;100097.37;107845;1258;71712;-70
2023/11/30 05:48:59;;;;;;;17.10;9.50;;;;;;;-4.26;75.17;100100.95;107783;1258;71649;-68
2023/11/30 05:51:27;;;;;;;17.80;8.70;;;;;;;-4.26;75.56;100106.48;107758;1257;60453;-68
2023/11/30 05:53:55;;;;;;;17.70;9.40;;;;;;;-4.24;75.63;100110.48;107843;1257;58981;-69
2023/11/30 05:56:23;;;;;;;19.10;10.20;;;;;;;-4.22;75.82;100108.89;107767;1259;73880;-67
2023/11/30 05:58:52;;;;;;;18.90;10.30;;;;;;;-4.19;76.05;100114.86;107820;1256;71606;-68
2023/11/30 06:01:19;;;;;;;19.40;10.60;;;;;;;-4.19;76.28;100119.84;107742;1257;71264;-68
2023/11/30 06:03:47;;;;;;;18.60;10.20;;;;;;;-4.16;76.39;100116.19;107753;1257;60452;-69
2023/11/30 06:06:15;;;;;;;19.10;10.40;;;;;;;-4.13;76.58;100125.05;107844;1257;60304;-69
2023/11/30 06:08:43;;;;;;;20.70;10.60;;;;;;;-4.15;76.85;100127.79;107676;1262;73907;-69
2023/11/30 06:11:11;;;;;;;18.90;9.50;;;;;;;-4.21;77.56;100134.89;107721;1257;72396;-68
2023/11/30 06:13:39;;;;;;;20.70;11.60;;;;;;;-4.06;77.60;100137.48;107750;1257;72698;-69
2023/11/30 06:16:07;;;;;;;23.70;11.20;;;;;;;-3.98;77.47;100148.30;107756;1260;61732;-69
2023/11/30 06:18:35;;;;;;;20.80;10.60;;;;;;;-3.91;77.45;100148.90;107754;1257;59059;-68
2023/11/30 06:21:13;;;;;;;20.20;9.90;;;;;;;-3.87;77.43;100156.08;107646;1263;72812;-69
2023/11/30 06:23:43;;;;;;;19.50;9.80;;;;;;;-3.82;77.25;100157.70;107656;1257;72789;-68
2023/11/30 06:26:11;;;;;;;19.20;10.20;;;;;;;-3.75;77.34;100162.40;107702;1257;71657;-68
2023/11/30 06:28:40;;;;;;;22.80;10.80;;;;;;;-3.69;77.15;100163.67;107725;1257;60864;-71
2023/11/30 06:31:08;;;;;;;22.70;11.30;;;;;;;-3.64;76.94;100165.00;107635;1257;60205;-68
2023/11/30 06:33:35;;;;;;;21.50;11.60;;;;;;;-3.60;76.90;100163.27;107665;1257;72669;-68
2023/11/30 06:36:06;;;;;;;19.70;9.60;;;;;;;-3.55;76.62;100168.27;107729;1257;73899;-69
2023/11/30 06:38:35;;;;;;;22.20;11.70;;;;;;;-3.49;76.64;100169.89;107741;1256;72730;-68
2023/11/30 06:41:15;;;;;;;23.70;11.20;;;;;;;-3.45;76.48;100168.55;107879;1257;60414;-69
2023/11/30 06:43:46;;;;;;;22.00;11.00;;;;;;;-3.41;76.05;100173.09;107718;1258;60108;-68
2023/11/30 06:46:22;;;;;;;20.90;11.00;;;;;;;-3.34;75.87;100175.15;107798;1256;72604;-68
2023/11/30 06:48:50;;;;;;;22.80;11.40;;;;;;;-3.28;75.72;100180.40;107613;1257;71888;-69
2023/11/30 06:51:18;;;;;;;19.30;10.40;;;;;;;-3.24;75.43;100182.97;107773;1257;71377;-68
2023/11/30 06:53:47;;;;;;;24.60;12.50;;;;;;;-3.18;75.01;100188.08;107718;1262;60981;-67
2023/11/30 06:56:56;;;;;;;25.90;12.50;;;;;;;-3.13;74.84;100193.88;107852;1257;60303;-67
2023/11/30 06:59:33;;;;;;;21.70;11.50;;;;;;;-3.05;74.32;100195.33;107708;1256;73135;-69
2023/11/30 07:02:01;;;;;;;22.50;11.90;;;;;;;-2.98;73.98;100196.11;107854;1256;72869;-68
2023/11/30 07:04:28;;;;;;;20.50;10.90;;;;;;;-2.93;73.72;100205.39;107752;1262;71379;-69
2023/11/30 07:06:57;;;;;;;23.60;10.70;;;;;;;-2.89;73.09;100207.52;107806;1257;60837;-70
2023/11/30 07:09:25;;;;;;;27.20;13.60;;;;;;;-2.83;72.56;100208.89;107743;1257;60384;-67
2023/11/30 07:11:53;;;;;;;24.00;11.50;;;;;;;-2.77;72.08;100217.46;107756;1256;73859;-68
2023/11/30 07:14:21;;;;;;;24.00;12.00;;;;;;;-2.71;71.81;100224.05;107712;1256;72717;-67
2023/11/30 07:16:48;;;;;;;24.70;11.80;;;;;;;-2.66;71.50;100224.95;107834;1257;71670;-68
2023/11/30 07:19:16;;;;;;;22.30;11.60;;;;;;;-2.61;71.17;100225.67;107717;1259;60354;-69
2023/11/30 07:21:44;;;;;;;21.30;11.90;;;;;;;-2.54;70.81;100223.67;107756;1257;59401;-67
2023/11/30 07:24:11;;;;;;;21.60;11.50;;;;;;;-2.50;70.25;100220.77;107720;1257;73059;-68
2023/11/30 07:26:39;;;;;;;22.60;12.50;;;;;;;-2.46;69.86;100221.15;107753;1257;71433;-67
2023/11/30 07:29:09;;;;;;;22.50;11.70;;;;;;;-2.41;69.49;100226.67;107711;1259;71754;-68
2023/11/30 07:31:37;;;;;;;25.70;12.60;;;;;;;-2.34;69.40;100237.41;107786;1257;60852;-67
2023/11/30 07:34:06;;;;;;;21.80;11.10;;;;;;;-2.27;69.32;100236.69;107758;1257;60284;-66
2023/11/30 07:36:34;;;;;;;23.60;12.30;;;;;;;-2.18;68.97;100238.33;107902;1257;73928;-67
2023/11/30 07:39:02;;;;;;;23.30;12.60;;;;;;;-2.11;68.62;100243.90;107730;1257;71491;-66
2023/11/30 07:41:30;;;;;;;21.20;11.10;;;;;;;-2.03;68.46;100244.42;107730;1257;71521;-67
2023/11/30 07:43:58;;;;;;;22.90;11.80;;;;;;;-1.99;67.91;100248.92;107729;1257;61784;-67
2023/11/30 07:46:26;;;;;;;22.10;11.20;;;;;;;-1.94;67.78;100247.29;107721;1257;60280;-67
2023/11/30 07:48:54;;;;;;;21.80;11.20;;;;;;;-1.87;67.43;100250.31;107772;1256;74138;-67
2023/11/30 07:51:23;;;;;;;20.90;11.60;;;;;;;-1.80;67.15;100245.16;107787;1259;72462;-69
2023/11/30 07:53:52;;;;;;;21.70;11.40;;;;;;;-1.73;66.62;100249.70;107722;1259;71707;-68
2023/11/30 07:56:20;;;;;;;25.60;12.60;;;;;;;-1.65;66.28;100255.04;107756;1258;60364;-67
2023/11/30 07:58:48;;;;;;;22.50;11.80;;;;;;;-1.58;65.91;100249.80;107743;1257;59986;-67
2023/11/30 08:01:15;;;;;;;21.10;11.50;;;;;;;-1.49;65.40;100249.41;107757;1258;73814;-67
2023/11/30 08:03:43;;;;;;;18.70;10.20;;;;;;;-1.41;65.09;100249.45;107666;1258;72777;-68
2023/11/30 08:06:11;;;;;;;20.70;11.50;;;;;;;-1.31;64.56;100255.33;107837;1259;71418;-67
2023/11/30 08:08:39;;;;;;;20.80;11.20;;;;;;;-1.22;64.17;100254.51;107674;1259;60525;-67
2023/11/30 08:11:07;;;;;;;22.40;10.90;;;;;;;-1.14;63.51;100259.47;107613;1258;60497;-66
2023/11/30 08:13:35;;;;;;;19.00;10.80;;;;;;;-1.06;63.20;100261.64;107717;1256;72764;-66
2023/11/30 08:16:04;;;;;;;19.70;10.00;;;;;;;-0.97;63.00;100262.61;107833;1257;71390;-66
2023/11/30 08:18:32;;;;;;;18.10;10.20;;;;;;;-0.86;62.89;100260.39;107686;1257;71274;-66
2023/11/30 08:21:02;;;;;;;19.00;10.60;;;;;;;-0.73;62.73;100263.65;107759;1259;59287;-68
2023/11/30 08:23:30;;;;;;;20.70;11.30;;;;;;;-0.62;61.94;100263.81;107792;1257;60432;-67
2023/11/30 08:25:58;;;;;;;20.90;10.60;;;;;;;-0.56;61.45;100267.69;107746;1257;73848;-67
2023/11/30 08:28:25;;;;;;;21.10;11.10;;;;;;;-0.48;61.08;100268.99;107725;1257;72714;-67
2023/11/30 08:30:53;;;;;;;21.00;11.70;;;;;;;-0.41;60.65;100268.11;107829;1261;71415;-67
2023/11/30 08:33:21;;;;;;;17.50;10.60;;;;;;;-0.35;60.43;100267.38;107860;1260;60452;-67
2023/11/30 08:35:49;;;;;;;16.90;9.20;;;;;;;-0.30;59.86;100268.98;107873;1257;60245;-68
2023/11/30 08:38:17;;;;;;;19.10;10.10;;;;;;;-0.26;59.32;100262.02;107763;1257;73972;-68
2023/11/30 08:40:45;;;;;;;16.80;9.90;;;;;;;-0.18;59.20;100259.67;107765;1262;71609;-66
2023/11/30 08:43:14;;;;;;;19.80;9.70;;;;;;;-0.10;59.21;100248.30;107730;1258;72742;-67
2023/11/30 08:45:42;;;;;;;16.50;9.50;;;;;;;-0.01;58.53;100241.88;107833;1256;60296;-67
2023/11/30 08:48:11;;;;;;;16.70;9.60;;;;;;;0.08;58.31;100241.08;107709;1257;60394;-69
2023/11/30 08:50:39;;;;;;;16.70;9.30;;;;;;;0.19;58.08;100241.96;107801;1257;73921;-69
2023/11/30 08:53:07;;;;;;;16.00;9.00;;;;;;;0.31;57.98;100239.94;107733;1257;72520;-67
2023/11/30 08:55:35;;;;;;;15.90;8.70;;;;;;;0.42;57.48;100245.67;107859;1257;71464;-66
2023/11/30 08:58:03;;;;;;;16.90;10.10;;;;;;;0.51;56.89;100242.23;107760;1260;60425;-68
2023/11/30 09:00:31;;;;;;;17.20;9.40;;;;;;;0.60;56.34;100246.66;107719;1257;60321;-69
2023/11/30 09:03:00;;;;;;;15.70;8.70;;;;;;;0.70;56.31;100251.16;107880;1257;73617;-68
2023/11/30 09:05:28;;;;;;;15.30;8.80;;;;;;;0.79;56.05;100244.49;107726;1257;71708;-69
2023/11/30 09:07:56;;;;;;;15.10;8.60;;;;;;;0.88;56.15;100245.64;107743;1257;71449;-69
2023/11/30 09:10:26;;;;;;;16.40;8.80;;;;;;;0.98;55.71;100241.77;107734;1257;60526;-68
2023/11/30 09:12:53;;;;;;;16.40;9.00;;;;;;;1.04;55.35;100239.91;107713;1257;61125;-68
2023/11/30 09:15:21;;;;;;;14.90;8.20;;;;;;;1.05;54.80;100240.55;107708;1257;72234;-69
2023/11/30 09:17:49;;;;;;;17.10;8.70;;;;;;;1.04;54.35;100238.58;107641;1257;71625;-69
2023/11/30 09:20:19;;;;;;;16.40;9.70;;;;;;;1.04;54.26;100233.51;107723;1256;71624;-68
2023/11/30 09:22:47;;;;;;;13.90;8.30;;;;;;;1.08;54.06;100235.63;107746;1258;60294;-69
2023/11/30 09:25:15;;;;;;;14.50;8.10;;;;;;;1.14;53.32;100224.08;107696;1257;60437;-68
2023/11/30 09:27:43;;;;;;;12.50;7.60;;;;;;;1.25;53.39;100225.34;107652;1256;72628;-68
2023/11/30 09:30:12;;;;;;;13.10;7.90;;;;;;;1.39;53.49;100222.58;107760;1257;71601;-67
2023/11/30 09:32:40;;;;;;;15.50;8.10;;;;;;;1.55;53.01;100224.52;107727;1257;72764;-67
2023/11/30 09:35:08;;;;;;;12.70;7.00;;;;;;;1.67;52.05;100215.67;107726;1258;60321;-67
2023/11/30 09:37:36;;;;;;;11.30;6.20;;;;;;;1.77;51.99;100208.19;107691;1257;60372;-67
2023/11/30 09:40:15;;;;;;;13.60;7.60;;;;;;;1.82;51.07;100220.00;107679;1260;74301;-66
2023/11/30 09:42:46;;;;;;;13.30;7.00;;;;;;;1.77;50.04;100220.82;107733;1257;72997;-66
2023/11/30 09:45:28;;;;;;;11.60;6.10;;;;;;;1.69;49.81;100224.14;107722;1257;71913;-66
2023/11/30 09:48:19;;;;;;;12.30;6.80;;;;;;;1.61;49.54;100228.15;107678;1262;60324;-69
2023/11/30 09:50:52;;;;;;;11.40;6.10;;;;;;;1.60;49.55;100228.65;107656;1257;62260;-66
2023/11/30 09:53:21;;;;;;;12.10;6.60;;;;;;;1.59;49.59;100229.87;107727;1257;74862;-67
2023/11/30 09:55:49;;;;;;;13.60;6.80;;;;;;;1.63;50.06;100228.51;107836;1256;71466;-67
2023/11/30 09:58:17;;;;;;;12.70;6.50;;;;;;;1.69;50.46;100228.18;107691;1257;71251;-68
2023/11/30 10:00:45;;;;;;;12.70;6.70;;;;;;;1.76;50.55;100231.23;107676;1263;60321;-66
2023/11/30 10:03:13;;;;;;;12.70;6.10;;;;;;;1.74;49.64;100223.15;107701;1257;60531;-66
2023/11/30 10:05:41;;;;;;;11.80;6.20;;;;;;;1.65;49.37;100232.27;107743;1257;72623;-67
2023/11/30 10:08:09;;;;;;;12.00;6.10;;;;;;;1.59;49.45;100228.08;107722;1257;71810;-67
2023/11/30 10:10:37;;;;;;;10.80;5.90;;;;;;;1.64;49.75;100232.08;107799;1257;71387;-69
2023/11/30 10:13:05;;;;;;;12.20;5.80;;;;;;;1.69;49.67;100231.73;107763;1260;60487;-67
2023/11/30 10:15:33;;;;;;;10.70;5.40;;;;;;;1.70;49.46;100228.54;107688;1260;62392;-68
2023/11/30 10:18:04;;;;;;;10.20;4.80;;;;;;;1.70;49.29;100224.56;107610;1257;72838;-66
2023/11/30 10:20:35;;;;;;;9.00;4.90;;;;;;;1.74;49.28;100226.10;107814;1257;70606;-68
2023/11/30 10:23:12;;;;;;;10.50;4.80;;;;;;;1.80;49.09;100224.13;107768;1257;72464;-68
2023/11/30 10:25:40;;;;;;;10.30;5.00;;;;;;;1.80;49.07;100220.85;107782;1257;60200;-68
2023/11/30 10:28:14;;;;;;;11.50;5.20;;;;;;;1.79;49.59;100220.13;107718;1257;62398;-68
2023/11/30 10:30:43;;;;;;;10.00;5.10;;;;;;;1.84;49.45;100229.20;107725;1260;72569;-68
2023/11/30 10:33:15;;;;;;;9.40;4.90;;;;;;;1.83;48.72;100224.38;107869;1258;71743;-67
2023/11/30 10:35:44;;;;;;;10.70;5.10;;;;;;;1.90;48.98;100224.51;107679;1262;73123;-69
2023/11/30 10:38:27;;;;;;;9.60;4.60;;;;;;;1.99;48.82;100226.58;107689;1262;60434;-68
2023/11/30 10:40:58;;;;;;;9.30;4.50;;;;;;;2.10;48.73;100228.81;107743;1257;60893;-70
2023/11/30 10:43:25;;;;;;;8.70;5.10;;;;;;;2.21;48.73;100227.19;107608;1257;72582;-67
2023/11/30 10:45:56;;;;;;;7.10;3.90;;;;;;;2.25;48.14;100231.78;107734;1257;72895;-71
2023/11/30 10:48:24;;;;;;;9.60;4.90;;;;;;;2.23;47.53;100229.86;107867;1258;72603;-68
2023/11/30 10:50:52;;;;;;;7.90;4.60;;;;;;;2.23;47.72;100236.39;107734;1257;60328;-66
2023/11/30 10:53:58;;;;;;;8.40;4.90;;;;;;;2.25;47.89;100231.86;107719;1256;60111;-68
2023/11/30 10:56:26;;;;;;;9.10;4.70;;;;;;;2.29;48.23;100232.25;107728;1257;72228;-68
2023/11/30 10:58:54;;;;;;;8.30;4.70;;;;;;;2.36;48.29;100228.57;107556;1257;72631;-68
2023/11/30 11:01:22;;;;;;;7.70;4.90;;;;;;;2.42;48.09;100235.59;107731;1260;71665;-70
2023/11/30 11:03:55;;;;;;;7.90;4.70;;;;;;;2.42;47.59;100240.62;107749;1257;60466;-70
2023/11/30 11:06:25;;;;;;;8.90;4.60;;;;;;;2.40;47.73;100234.70;107765;1257;60524;-70
2023/11/30 11:09:00;;;;;;;9.40;4.90;;;;;;;2.39;47.94;100233.45;107745;1257;72597;-69
2023/11/30 11:11:30;;;;;;;9.70;5.00;;;;;;;2.38;47.99;100234.16;107854;1257;72005;-69
2023/11/30 11:13:59;;;;;;;8.80;5.00;;;;;;;2.35;48.22;100230.08;107547;1257;194545;-69
2023/11/30 11:16:40;;;;;;;9.80;5.10;;;;;;;2.38;48.77;100230.26;107753;1257;60393;-70
2023/11/30 11:19:09;;;;;;;7.70;4.50;;;;;;;2.46;48.95;100225.30;107688;1263;60410;-72
2023/11/30 11:21:37;;;;;;;9.10;5.20;;;;;;;2.50;48.21;100212.63;107715;1257;74039;-70
2023/11/30 11:24:06;;;;;;;8.40;4.60;;;;;;;2.47;48.05;100221.61;107818;1257;71593;-71
2023/11/30 11:26:47;;;;;;;8.20;4.30;;;;;;;2.38;47.68;100231.06;107652;1260;73404;-72
2023/11/30 11:29:15;;;;;;;8.70;4.90;;;;;;;2.30;48.24;100233.38;107691;1260;60383;-71